createdAt,value
2022-10-22T00:01:58.099Z,99903.63
2022-10-22T00:06:56.811Z,99904.34
2022-10-22T00:11:55.477Z,99893.56
2022-10-22T00:16:54.189Z,99889.38
2022-10-22T00:21:53.342Z,99900.94
2022-10-22T00:26:52.926Z,99882.28
2022-10-22T00:31:51.849Z,99869.34
2022-10-22T00:36:51.733Z,99866.31
2022-10-22T00:41:52.159Z,99868.31
2022-10-22T00:46:50.900Z,99867.47
2022-10-22T00:51:49.685Z,99863.06
2022-10-22T00:56:49.259Z,99857.06
2022-10-22T01:01:47.986Z,99871.25
2022-10-22T01:06:47.379Z,99862.88
2022-10-22T01:12:12.376Z,99858.09
2022-10-22T01:17:37.577Z,99862.84
2022-10-22T01:22:45.991Z,99866.47
2022-10-22T01:28:01.647Z,99872.53
2022-10-22T01:33:03.635Z,99874.72
2022-10-22T01:38:06.679Z,99869.16
2022-10-22T01:43:06.871Z,99867.47
2022-10-22T01:48:19.976Z,99866.31
2022-10-22T01:53:34.507Z,99861.81
2022-10-22T01:58:42.353Z,99862.84
2022-10-22T02:03:51.403Z,99866.28
2022-10-22T02:08:53.250Z,99861.81
2022-10-22T02:13:56.739Z,99860.16
2022-10-22T02:18:59.855Z,99851.25
2022-10-22T02:23:58.666Z,99850.47
2022-10-22T02:34:36.757Z,99855.53
2022-10-22T02:40:25.504Z,99855.56
2022-10-22T02:45:24.762Z,99854.66
2022-10-22T02:50:23.412Z,99856.03
2022-10-22T02:55:22.186Z,99841.97
2022-10-22T03:00:20.956Z,99854.00
2022-10-22T03:05:19.819Z,99857.50
2022-10-22T03:10:18.522Z,99862.63
2022-10-22T03:15:17.843Z,99854.53
2022-10-22T03:20:19.297Z,99854.06
2022-10-22T03:25:22.612Z,99866.69
2022-10-22T03:30:21.604Z,99868.91
2022-10-22T03:35:20.472Z,99857.47
2022-10-22T03:40:19.643Z,99868.34
2022-10-22T03:45:18.577Z,99873.97
2022-10-22T03:50:17.574Z,99884.38
2022-10-22T03:55:16.323Z,99881.59
2022-10-22T04:00:15.254Z,99877.63
2022-10-22T04:10:12.670Z,99872.13
2022-10-22T04:15:11.351Z,99872.66
2022-10-22T04:20:10.726Z,99872.91
2022-10-22T04:25:09.831Z,99875.94
2022-10-22T04:30:09.043Z,99887.06
2022-10-22T04:35:08.002Z,99889.25
2022-10-22T04:40:07.474Z,99880.00
2022-10-22T04:45:06.533Z,99882.06
2022-10-22T04:50:05.804Z,99877.56
2022-10-22T04:55:05.204Z,99881.41
2022-10-22T05:00:05.225Z,99868.06
2022-10-22T05:05:04.533Z,99871.00
2022-10-22T05:10:03.434Z,99874.72
2022-10-22T05:15:02.246Z,99864.47
2022-10-22T05:20:00.936Z,99885.13
2022-10-22T05:24:59.693Z,99896.16
2022-10-22T05:29:58.427Z,99899.16
2022-10-22T05:34:57.316Z,99898.72
2022-10-22T05:40:06.527Z,99902.41
2022-10-22T05:45:14.973Z,99902.88
2022-10-22T05:50:13.834Z,99900.72
2022-10-22T05:55:12.537Z,99916.88
2022-10-22T06:00:14.260Z,99913.34
2022-10-22T06:05:15.211Z,99917.16
2022-10-22T06:10:17.007Z,99932.03
2022-10-22T06:15:18.231Z,99940.66
2022-10-22T06:20:17.541Z,99948.53
2022-10-22T06:25:16.323Z,99944.78
2022-10-22T06:30:15.048Z,99946.88
2022-10-22T06:35:13.947Z,99941.56
2022-10-22T06:40:13.055Z,99952.91
2022-10-22T06:45:11.803Z,99964.59
2022-10-22T06:50:10.699Z,99967.88
2022-10-22T06:55:10.258Z,99969.03
2022-10-22T07:00:09.838Z,99979.53
2022-10-22T07:05:09.120Z,99996.72
2022-10-22T07:10:08.570Z,99995.34
2022-10-22T07:15:07.662Z,99997.03
2022-10-22T07:20:07.016Z,100008.16
2022-10-22T07:25:07.288Z,100011.44
2022-10-22T07:30:07.007Z,100023.66
2022-10-22T07:35:06.075Z,100027.28
2022-10-22T07:40:05.172Z,100028.16
2022-10-22T07:45:04.246Z,100046.81
2022-10-22T07:50:04.582Z,100061.25
2022-10-22T07:55:04.369Z,100077.13
2022-10-22T08:00:08.165Z,100070.94
2022-10-22T08:05:13.536Z,100075.63
2022-10-22T08:10:12.687Z,100074.06
2022-10-22T08:15:11.284Z,100085.97
2022-10-22T08:20:10.789Z,100082.84
2022-10-22T08:25:09.776Z,100094.03
2022-10-22T08:30:09.023Z,100078.13
2022-10-22T08:35:07.833Z,100080.03
2022-10-22T08:40:07.248Z,100087.72
2022-10-22T08:45:14.175Z,100083.22
2022-10-22T08:50:19.435Z,100085.41
2022-10-22T08:55:18.727Z,100092.69
2022-10-22T09:00:35.061Z,100088.72
2022-10-22T09:05:46.352Z,100090.81
2022-10-22T09:10:51.990Z,100098.44
2022-10-22T09:16:19.136Z,100100.13
2022-10-22T09:21:38.492Z,100104.66
2022-10-22T09:26:40.493Z,100107.72
2022-10-22T09:31:39.300Z,100103.44
2022-10-22T09:36:38.094Z,100102.44
2022-10-22T09:41:36.965Z,100095.44
2022-10-22T09:46:43.985Z,100097.66
2022-10-22T09:51:52.807Z,100099.06
2022-10-22T09:57:04.062Z,100112.97
2022-10-22T10:02:38.019Z,100104.81
2022-10-22T10:07:37.594Z,100102.09
2022-10-22T10:12:42.669Z,100114.59
2022-10-22T10:17:59.972Z,100119.19
2022-10-22T10:23:08.514Z,100126.03
2022-10-22T10:28:34.465Z,100126.59
2022-10-22T10:33:47.754Z,100131.44
2022-10-22T10:38:56.850Z,100124.91
2022-10-22T10:44:14.158Z,100123.06
2022-10-22T10:49:25.909Z,100124.69
2022-10-22T10:54:28.589Z,100117.38
2022-10-22T10:59:33.119Z,100116.81
2022-10-22T11:04:53.765Z,100109.97
2022-10-22T11:10:02.185Z,100128.47
2022-10-22T11:15:15.155Z,100148.13
2022-10-22T11:20:20.105Z,100150.22
2022-10-22T11:25:27.621Z,100153.22
2022-10-22T11:30:32.005Z,100141.44
2022-10-22T11:35:34.111Z,100160.88
2022-10-22T11:40:36.675Z,100153.84
2022-10-22T11:45:43.345Z,100144.03
2022-10-22T11:50:54.484Z,100139.66
2022-10-22T11:55:56.306Z,100140.44
2022-10-22T12:01:01.553Z,100139.28
2022-10-22T12:06:34.736Z,100132.16
2022-10-22T12:11:36.492Z,100128.88
2022-10-22T12:16:56.305Z,100129.22
2022-10-22T12:22:29.755Z,100135.91
2022-10-22T12:27:39.828Z,100117.75
2022-10-22T12:32:42.458Z,100121.03
2022-10-22T12:37:41.732Z,100127.91
2022-10-22T12:42:47.990Z,100123.84
2022-10-22T12:47:48.798Z,100120.59
2022-10-22T12:52:48.740Z,100122.19
2022-10-22T12:57:49.023Z,100128.09
2022-10-22T13:02:47.941Z,100119.28
2022-10-22T13:07:50.714Z,100130.94
2022-10-22T13:12:51.420Z,100129.84
2022-10-22T13:17:50.258Z,100129.84
2022-10-22T13:23:03.353Z,100130.31
2022-10-22T13:28:10.854Z,100139.88
2022-10-22T13:33:30.131Z,100141.41
2022-10-22T13:38:29.436Z,100146.41
2022-10-22T13:43:28.171Z,100146.22
2022-10-22T13:48:30.007Z,100139.09
2022-10-22T13:53:30.476Z,100141.41
2022-10-22T13:58:29.161Z,100145.47
2022-10-22T14:03:34.088Z,100147.13
2022-10-22T14:08:32.868Z,100152.75
2022-10-22T14:13:31.645Z,100154.31
2022-10-22T14:18:33.083Z,100151.69
2022-10-22T14:23:32.663Z,100151.75
2022-10-22T14:28:37.213Z,100155.38
2022-10-22T14:33:40.615Z,100154.56
2022-10-22T14:38:39.531Z,100153.75
2022-10-22T14:43:38.318Z,100160.56
2022-10-22T14:48:37.030Z,100167.31
2022-10-22T14:53:35.705Z,100167.53
2022-10-22T14:58:34.513Z,100166.16
2022-10-22T15:03:33.748Z,100171.09
2022-10-22T15:08:32.607Z,100167.28
2022-10-22T15:13:32.326Z,100178.22
2022-10-22T15:18:31.080Z,100175.22
2022-10-22T15:23:30.049Z,100189.16
2022-10-22T15:28:29.552Z,100188.13
2022-10-22T15:33:29.337Z,100197.72
2022-10-22T15:43:28.566Z,100207.81
2022-10-22T15:48:27.235Z,100217.88
2022-10-22T15:53:25.968Z,100222.50
2022-10-22T15:58:24.953Z,100230.91
2022-10-22T16:03:23.709Z,100237.44
2022-10-22T16:08:22.406Z,100237.44
2022-10-22T16:13:24.087Z,100255.66
2022-10-22T16:18:23.693Z,100245.81
2022-10-22T16:23:23.089Z,100255.06
2022-10-22T16:28:24.725Z,100259.38
2022-10-22T16:33:26.278Z,100263.13
2022-10-22T16:38:25.192Z,100276.69
2022-10-22T16:43:23.881Z,100276.63
2022-10-22T16:48:22.777Z,100289.59
2022-10-22T16:53:21.512Z,100291.91
2022-10-22T16:58:20.255Z,100295.63
2022-10-22T17:03:18.983Z,100308.97
2022-10-22T17:08:17.667Z,100308.34
2022-10-22T17:13:16.525Z,100315.66
2022-10-22T17:18:15.686Z,100317.28
2022-10-22T17:23:14.376Z,100339.31
2022-10-22T17:28:13.441Z,100335.91
2022-10-22T17:33:12.079Z,100344.28
2022-10-22T17:38:10.788Z,100348.34
2022-10-22T17:43:09.432Z,100353.41
2022-10-22T17:48:08.326Z,100357.44
2022-10-22T17:53:07.140Z,100370.75
2022-10-22T17:58:05.853Z,100375.38
2022-10-22T18:03:04.624Z,100372.75
2022-10-22T18:08:07.715Z,100382.34
2022-10-22T18:13:06.784Z,100389.88
2022-10-22T18:18:06.030Z,100390.63
2022-10-22T18:23:04.837Z,100390.47
2022-10-22T18:28:03.586Z,100402.47
2022-10-22T18:33:02.518Z,100400.16
2022-10-22T18:38:01.154Z,100402.06
2022-10-22T18:42:59.800Z,100402.41
2022-10-22T18:48:00.735Z,100401.16
2022-10-22T18:52:59.446Z,100400.69
2022-10-22T18:57:58.052Z,100396.31
2022-10-22T19:02:56.828Z,100392.50
2022-10-22T19:07:55.533Z,100402.31
2022-10-22T19:12:54.330Z,100394.13
2022-10-22T19:17:52.990Z,100398.22
2022-10-22T19:22:53.439Z,100400.91
2022-10-22T19:27:52.281Z,100405.09
2022-10-22T19:32:51.058Z,100397.88
2022-10-22T19:37:49.790Z,100409.69
2022-10-22T19:42:51.404Z,100414.81
2022-10-22T19:47:50.105Z,100413.16
2022-10-22T19:52:48.770Z,100430.41
2022-10-22T19:57:47.471Z,100421.63
2022-10-22T20:02:46.396Z,100434.22
2022-10-22T20:07:45.220Z,100433.78
2022-10-22T20:12:43.988Z,100428.06
2022-10-22T20:17:43.010Z,100429.84
2022-10-22T20:22:43.357Z,100434.59
2022-10-22T20:27:42.605Z,100437.91
2022-10-22T20:32:41.575Z,100435.34
2022-10-22T20:37:40.731Z,100445.22
2022-10-22T20:42:39.984Z,100459.13
2022-10-22T20:47:51.277Z,100468.75
2022-10-22T20:52:57.508Z,100464.78
2022-10-22T20:57:56.229Z,100464.28
2022-10-22T21:02:54.934Z,100469.78
2022-10-22T21:07:53.588Z,100466.41
2022-10-22T21:12:52.284Z,100470.75
2022-10-22T21:17:51.072Z,100479.88
2022-10-22T21:22:49.923Z,100477.13
2022-10-22T21:27:48.634Z,100486.00
2022-10-22T21:32:47.511Z,100483.78
2022-10-22T21:37:46.254Z,100484.88
2022-10-22T21:42:45.068Z,100490.53
2022-10-22T21:47:44.871Z,100490.63
2022-10-22T21:52:43.625Z,100484.41
2022-10-22T21:57:42.541Z,100491.25
2022-10-22T22:02:41.786Z,100481.84
2022-10-22T22:07:40.866Z,100492.44
2022-10-22T22:12:40.032Z,100490.72
2022-10-22T22:17:40.555Z,100484.47
2022-10-22T22:22:44.277Z,100481.53
2022-10-22T22:27:43.841Z,100490.25
2022-10-22T22:32:42.789Z,100475.00
2022-10-22T22:37:41.946Z,100476.44
2022-10-22T22:42:41.316Z,100486.66
2022-10-22T22:47:40.355Z,100483.53
2022-10-22T22:52:39.738Z,100492.88
2022-10-22T22:57:38.724Z,100487.03
2022-10-22T23:02:37.373Z,100491.47
2022-10-22T23:07:38.966Z,100481.13
2022-10-22T23:12:37.745Z,100486.06
2022-10-22T23:17:39.435Z,100474.63
2022-10-22T23:22:47.508Z,100485.53
2022-10-22T23:27:46.249Z,100487.97
2022-10-22T23:32:44.910Z,100485.63
2022-10-22T23:37:43.938Z,100485.28
2022-10-22T23:42:45.137Z,100485.53
2022-10-22T23:47:44.087Z,100491.28
2022-10-22T23:52:43.343Z,100501.84
2022-10-22T23:57:42.254Z,100499.84
